Detall de PIREP

Printer-friendly versionPDF version

[2013/04/06 05:22:00]
Flight IATA:CT0001
Pilot Number:041
Company ICAO:CAT
Aircraft Type:A320/E
PAX:88
Departing Airport: LEGE
Destination Airport: LELC
Alternate Airport:LEMG
Online: VATSIM
Route:DCT MAMUK H110 SEROX A34 ALT DCT
Flight Level:F170
No Slew and time accel
No pause
Crash detect
Detect pilot in Cockpit between each 30 and 45 minutes
05:22 Zero fuel Weight: 134050 Lbs, Fuel Weight: 11470 Lbs
05:22 VATSIM:LEGE 060500Z 17002KT 8000 FEW010 BKN082 05/05 Q1008
05:22 VATSIM:LELC 052100Z 35003KT CAVOK 11/10 Q1010 NOSIG
05:22 VOICE CATALONIAN
05:29 Parking Brakes off
05:34 Take-off
05:34 Take off Weight: 144555 Lbs
05:34 Wind: 337º @ 002 Knots Heading: 196º
05:34 POS N41º 53´ 41´´ E002º 45´ 29´´
05:34 Flaps:3 at 177 Knots
05:34 Gear Up: 179 Knots
05:35 Flaps:2 at 176 Knots
05:35 Flaps:1 at 165 Knots
05:35 Flaps:0 at 162 Knots
05:40 TOC
05:40 Fuel Weight:8563 Lb
05:49 Wind:251º@023 Knots Heading: 258º Ground Speed: 343 Knots Altitude 16866 ft
06:04 Wind:271º@020 Knots Heading: 199º Ground Speed: 360 Knots Altitude 16942 ft
06:19 Wind:323º@047 Knots Heading: 187º Ground Speed: 402 Knots Altitude 16968 ft
06:29 TOD
06:29 Fuel Weight: 1626 Lb
06:34 Wind:324º@019 Knots Heading: 180º Ground Speed: 275 Knots Altitude 9734 ft
06:43 Flaps:1 at 202 Knots
06:43 Flaps:2 at 199 Knots
06:44 Flaps:3 at 184 Knots
06:44 Gear Down: 183 Knots
06:44 Flaps:4 at 172 Knots
06:44 Flaps:5 at 156 Knots
06:45 TouchDown:Rate -256 ft/min Speed: 135 Knots
06:46 VATSIM:LELC 060600Z 29010KT CAVOK 08/00 Q1015 NOSIG
06:46 Land
06:46 Wind:293º@013 Knots
06:46 Heading: 044º
06:46 Flight Duration: 01:12
06:46 Landing Weight: 134406 Lbs
06:46 POS N37º 46´ 32´´ W000º 48´ 40´´
06:48 Parking brakes on
06:48 Block to Block Duration: 01:19
06:48 Final Fuel: 99 Lbls
06:48 Spent Fuel: 11371 Lbls
06:48 Flight Length: 405 NM
06:48 TOD Land Length: 71 NM

Exportar CSV

Powered by Drupal - Modified by Danger4k